Portada
METAR-TAF:

METAR-TAF

Aeroports :

Loei, Tailàndia

latitud: 17-27N, longitud: 101-44E, altitud: 253 m

Observació

L'informe es va fer fa 56 minuts, a les 02:00 UTC
Vent 2 kt amb direcció variable
Temperatura 23°C
Humitat 78%
Pressió 1019 hPa
Visibilitat 10 km o més
Escasses núvols a una alçada de 1600 ft
Cel cobert a una alçada de 5000 ft

METAR: VTUL 120200Z VRB02KT 9999 FEW016 OVC050 23/19 Q1019 NOSIG

Hora: 09:56 (02:56 UTC)

Pronòstic

L'informe es va fer fa 3 hores i 56 minuts, a les 23:00 UTC
Pronòstic vàlid del 12 a les 00 UTC al 12 a les 24 UTC
Vent 2 kt amb direcció variable
Visibilitat: 5000 m
Núvols disperses a una alçada de 3000 ft
Cel ennuvolat a una alçada de 10000 ft
boirina
Evolucionant progressivament
l' 12 a les 00 UTC al 12 a les 02 UTC
Visibilitat: 9000 m

TAF: VTUL 112300Z 1200/1224 VRB02KT 5000 BR SCT030 BKN100 BECMG 1200/1202 9000 NSW

Observacions i pronòstics meteorològics de més de 4000 aeroports (METAR i TAF).

Les estacions disponibles són els punts grocs i vermells al mapa.

Posi el ratolí al punt desitjat per veure el nom de l'estació.

Feu clic per veure les observacions i els pronòstics meteorològics.

Per canviar el mapa: feu clic els botons verds amb una creu de color negre per apropar; al botó verd amb un guió per allunyar la imatge; o en les fletxes verdes per a mapes adjacents.


METAR-TAF: